createdAt,value
2022-12-04T00:01:23.918Z,98139.80
2022-12-04T00:04:26.795Z,98145.38
2022-12-04T00:07:29.761Z,98138.58
2022-12-04T00:10:32.662Z,98138.73
2022-12-04T00:13:36.425Z,98142.04
2022-12-04T00:16:39.351Z,98138.49
2022-12-04T00:19:44.883Z,98139.88
2022-12-04T00:22:47.739Z,98142.79
2022-12-04T00:25:50.521Z,98146.32
2022-12-04T00:28:53.742Z,98148.23
2022-12-04T00:31:56.538Z,98150.23
2022-12-04T00:34:59.399Z,98153.60
2022-12-04T00:38:02.221Z,98146.09
2022-12-04T00:41:05.300Z,98151.89
2022-12-04T00:44:08.216Z,98144.02
2022-12-04T00:47:10.999Z,98147.73
2022-12-04T00:50:13.796Z,98133.92
2022-12-04T00:53:16.940Z,98131.17
2022-12-04T00:56:24.121Z,98130.33
2022-12-04T00:59:26.975Z,98131.27
2022-12-04T01:02:30.853Z,98133.09
2022-12-04T01:05:42.047Z,98126.35
2022-12-04T01:08:44.791Z,98137.89
2022-12-04T01:11:47.622Z,98129.23
2022-12-04T01:14:50.361Z,98129.90
2022-12-04T01:17:53.143Z,98129.21
2022-12-04T01:20:56.002Z,98119.89
2022-12-04T01:23:59.871Z,98120.20
2022-12-04T01:27:03.109Z,98119.30
2022-12-04T01:30:06.519Z,98115.98
2022-12-04T01:33:09.341Z,98116.87
2022-12-04T01:36:19.080Z,98115.24
2022-12-04T01:39:21.970Z,98111.34
2022-12-04T01:42:25.402Z,98115.88
2022-12-04T01:45:31.160Z,98118.80
2022-12-04T01:48:39.168Z,98122.88
2022-12-04T01:51:46.642Z,98118.66
2022-12-04T01:54:54.189Z,98115.73
2022-12-04T01:57:58.119Z,98110.20
2022-12-04T02:01:08.506Z,98110.02
2022-12-04T02:04:12.264Z,98111.16
2022-12-04T02:07:15.102Z,98107.36
2022-12-04T02:10:24.679Z,98107.44
2022-12-04T02:13:35.666Z,98108.44
2022-12-04T02:17:02.385Z,98109.36
2022-12-04T02:20:54.903Z,98109.94
2022-12-04T02:24:00.603Z,98103.52
2022-12-04T02:27:09.145Z,98105.82
2022-12-04T02:30:13.637Z,98103.48
2022-12-04T02:33:23.919Z,98105.71
2022-12-04T02:36:31.379Z,98106.83
2022-12-04T02:39:44.677Z,98110.33
2022-12-04T02:42:58.929Z,98108.47
2022-12-04T02:46:18.132Z,98105.85
2022-12-04T02:49:31.234Z,98101.63
2022-12-04T02:52:38.902Z,98094.32
2022-12-04T02:55:51.088Z,98094.96
2022-12-04T02:59:02.482Z,98096.63
2022-12-04T03:02:48.203Z,98092.33
2022-12-04T03:05:51.018Z,98091.15
2022-12-04T03:09:01.857Z,98092.11
2022-12-04T03:12:11.559Z,98091.98
2022-12-04T03:15:35.834Z,98089.14
2022-12-04T03:19:07.411Z,98090.19
2022-12-04T03:22:15.130Z,98092.19
2022-12-04T03:25:18.043Z,98094.04
2022-12-04T03:28:29.214Z,98093.27
2022-12-04T03:31:50.455Z,98094.33
2022-12-04T03:35:06.182Z,98088.49
2022-12-04T03:38:21.332Z,98082.30
2022-12-04T03:41:49.933Z,98083.20
2022-12-04T03:45:19.794Z,98083.40
2022-12-04T03:48:26.800Z,98084.47
2022-12-04T03:51:41.706Z,98085.36
2022-12-04T03:54:51.775Z,98080.70
2022-12-04T03:58:00.114Z,98077.11
2022-12-04T04:01:07.842Z,98077.43
2022-12-04T04:04:16.186Z,98067.15
2022-12-04T04:07:31.863Z,98069.13
2022-12-04T04:10:38.250Z,98067.23
2022-12-04T04:14:12.218Z,98075.19
2022-12-04T04:17:38.857Z,98075.35
2022-12-04T04:21:08.952Z,98073.59
2022-12-04T04:24:26.072Z,98077.54
2022-12-04T04:27:28.936Z,98083.38
2022-12-04T04:30:34.355Z,98075.30
2022-12-04T04:33:51.355Z,98075.48
2022-12-04T04:37:13.253Z,98070.91
2022-12-04T04:40:30.819Z,98075.00
2022-12-04T04:43:54.402Z,98074.23
2022-12-04T04:47:02.933Z,98075.83
2022-12-04T04:50:09.358Z,98073.36
2022-12-04T04:53:37.005Z,98069.59
2022-12-04T04:56:44.433Z,98068.85
2022-12-04T04:59:47.263Z,98066.20
2022-12-04T05:02:50.562Z,98070.56
2022-12-04T05:05:53.888Z,98075.02
2022-12-04T05:08:56.768Z,98088.92
2022-12-04T05:11:59.612Z,98089.28
2022-12-04T05:15:02.632Z,98087.80
2022-12-04T05:18:05.620Z,98088.98
2022-12-04T05:21:16.422Z,98084.82
2022-12-04T05:24:19.245Z,98088.23
2022-12-04T05:27:22.776Z,98085.58
2022-12-04T05:30:25.786Z,98087.63
2022-12-04T05:33:29.766Z,98077.27
2022-12-04T05:36:32.591Z,98076.62
2022-12-04T05:39:35.829Z,98075.69
2022-12-04T05:42:38.666Z,98072.38
2022-12-04T05:45:41.569Z,98084.36
2022-12-04T05:48:44.444Z,98086.88
2022-12-04T05:51:47.283Z,98075.09
2022-12-04T05:54:50.073Z,98076.27
2022-12-04T05:57:52.833Z,98075.22
2022-12-04T06:00:55.636Z,98078.33
2022-12-04T06:03:58.560Z,98078.14
2022-12-04T06:07:01.343Z,98078.14
2022-12-04T06:10:05.191Z,98080.68
2022-12-04T06:13:08.476Z,98083.09
2022-12-04T06:16:20.464Z,98085.25
2022-12-04T06:19:23.757Z,98090.30
2022-12-04T06:22:26.565Z,98088.27
2022-12-04T06:25:29.606Z,98089.96
2022-12-04T06:28:32.348Z,98088.05
2022-12-04T06:31:36.413Z,98089.67
2022-12-04T06:34:39.397Z,98088.42
2022-12-04T06:37:42.252Z,98092.44
2022-12-04T06:40:45.021Z,98090.30
2022-12-04T06:43:48.963Z,98091.80
2022-12-04T06:46:54.693Z,98098.52
2022-12-04T06:49:58.232Z,98102.14
2022-12-04T06:53:07.958Z,98099.62
2022-12-04T06:56:17.906Z,98102.73
2022-12-04T06:59:20.708Z,98099.77
2022-12-04T07:02:23.611Z,98090.28
2022-12-04T07:05:27.685Z,98092.73
2022-12-04T07:08:30.466Z,98092.85
2022-12-04T07:11:34.232Z,98095.13
2022-12-04T07:14:37.120Z,98106.59
2022-12-04T07:17:39.954Z,98110.73
2022-12-04T07:20:42.737Z,98114.33
2022-12-04T07:23:46.091Z,98111.48
2022-12-04T07:26:49.000Z,98110.95
2022-12-04T07:29:53.234Z,98112.23
2022-12-04T07:32:56.124Z,98109.79
2022-12-04T07:36:00.842Z,98107.83
2022-12-04T07:39:03.980Z,98110.78
2022-12-04T07:42:06.724Z,98115.65
2022-12-04T07:45:10.039Z,98111.57
2022-12-04T07:48:12.852Z,98110.92
2022-12-04T07:51:20.817Z,98111.06
2022-12-04T07:54:23.621Z,98106.55
2022-12-04T07:57:28.214Z,98105.80
2022-12-04T08:00:31.023Z,98114.48
2022-12-04T08:03:33.887Z,98113.73
2022-12-04T08:06:37.625Z,98110.63
2022-12-04T08:09:40.477Z,98109.88
2022-12-04T08:12:43.291Z,98108.07
2022-12-04T08:15:46.062Z,98107.29
2022-12-04T08:18:48.961Z,98108.20
2022-12-04T08:21:54.873Z,98119.70
2022-12-04T08:24:57.652Z,98119.95
2022-12-04T08:28:00.510Z,98125.09
2022-12-04T08:31:11.857Z,98122.10
2022-12-04T08:34:15.406Z,98120.23
2022-12-04T08:37:18.408Z,98116.98
2022-12-04T08:40:21.207Z,98122.18
2022-12-04T08:43:24.017Z,98120.56
2022-12-04T08:46:28.295Z,98112.17
2022-12-04T08:49:31.222Z,98118.14
2022-12-04T08:52:34.022Z,98122.80
2022-12-04T08:55:36.772Z,98119.36
2022-12-04T08:58:39.640Z,98121.02
2022-12-04T09:01:42.492Z,98117.73
2022-12-04T09:04:45.417Z,98117.33
2022-12-04T09:07:48.328Z,98121.05
2022-12-04T09:10:51.147Z,98117.40
2022-12-04T09:13:54.460Z,98118.98
2022-12-04T09:16:57.303Z,98120.89
2022-12-04T09:20:01.418Z,98120.77
2022-12-04T09:23:05.719Z,98117.64
2022-12-04T09:26:26.842Z,98118.95
2022-12-04T09:29:31.742Z,98115.54
2022-12-04T09:32:35.279Z,98116.67
2022-12-04T09:35:41.154Z,98114.67
2022-12-04T09:38:46.487Z,98106.30
2022-12-04T09:42:03.061Z,98099.48
2022-12-04T09:45:17.831Z,98101.21
2022-12-04T09:48:27.296Z,98092.34
2022-12-04T09:51:32.271Z,98087.48
2022-12-04T09:54:41.218Z,98090.20
2022-12-04T09:57:47.647Z,98089.51
2022-12-04T10:00:51.391Z,98091.31
2022-12-04T10:03:59.915Z,98087.55
2022-12-04T10:07:25.314Z,98082.61
2022-12-04T10:10:45.688Z,98083.23
2022-12-04T10:13:48.500Z,98077.83
2022-12-04T10:17:10.096Z,98078.98
2022-12-04T10:20:28.344Z,98083.08
2022-12-04T10:23:46.587Z,98080.15
2022-12-04T10:26:49.627Z,98075.02
2022-12-04T10:29:58.426Z,98068.70
2022-12-04T10:33:19.566Z,98070.90
2022-12-04T10:36:28.426Z,98066.95
2022-12-04T10:39:50.907Z,98066.64
2022-12-04T10:43:14.485Z,98064.39
2022-12-04T10:46:33.692Z,98062.88
2022-12-04T10:49:37.746Z,98062.52
2022-12-04T10:52:40.520Z,98057.20
2022-12-04T10:55:43.494Z,98053.73
2022-12-04T10:59:01.103Z,98057.74
2022-12-04T11:02:24.118Z,98054.52
2022-12-04T11:05:32.112Z,98059.10
2022-12-04T11:08:50.186Z,98062.04
2022-12-04T11:11:53.137Z,98055.77
2022-12-04T11:15:08.341Z,98055.02
2022-12-04T11:18:25.250Z,98057.16
2022-12-04T11:21:30.832Z,98062.85
2022-12-04T11:24:36.922Z,98065.50
2022-12-04T11:27:39.765Z,98062.76
2022-12-04T11:30:49.290Z,98060.84
2022-12-04T11:34:00.280Z,98056.40
2022-12-04T11:37:04.422Z,98053.14
2022-12-04T11:40:16.992Z,98042.80
2022-12-04T11:43:20.850Z,98037.59
2022-12-04T11:46:27.393Z,98034.92
2022-12-04T11:49:32.740Z,98037.55
2022-12-04T11:52:53.328Z,98040.21
2022-12-04T11:56:16.244Z,98042.93
2022-12-04T11:59:43.056Z,98047.53
2022-12-04T12:03:06.612Z,98036.42
2022-12-04T12:06:32.832Z,98040.73
2022-12-04T12:09:46.262Z,98041.15
2022-12-04T12:12:58.366Z,98038.34
2022-12-04T12:16:13.437Z,98042.56
2022-12-04T12:19:22.598Z,98041.53
2022-12-04T12:22:40.939Z,98037.27
2022-12-04T12:26:00.514Z,98038.77
2022-12-04T12:29:17.644Z,98039.51
2022-12-04T12:32:29.569Z,98034.54
2022-12-04T12:35:45.881Z,98037.92
2022-12-04T12:39:16.490Z,98037.89
2022-12-04T12:42:26.520Z,98040.63
2022-12-04T12:45:48.015Z,98039.41
2022-12-04T12:49:00.802Z,98034.21
2022-12-04T12:52:14.812Z,98029.93
2022-12-04T12:55:29.873Z,98031.73
2022-12-04T12:58:36.544Z,98029.58
2022-12-04T13:01:57.277Z,98027.84
2022-12-04T13:05:11.026Z,98031.05
2022-12-04T13:08:36.659Z,98031.48
2022-12-04T13:11:40.600Z,98033.27
2022-12-04T13:14:48.664Z,98026.91
2022-12-04T13:17:55.387Z,98022.86
2022-12-04T13:21:03.711Z,98025.09
2022-12-04T13:24:31.672Z,98026.67
2022-12-04T13:27:53.646Z,98024.57
2022-12-04T13:31:27.891Z,98022.52
2022-12-04T13:35:03.865Z,98023.33
2022-12-04T13:38:28.729Z,98023.88
2022-12-04T13:41:38.933Z,98011.93
2022-12-04T13:44:41.860Z,98017.53
2022-12-04T13:47:44.643Z,98016.48
2022-12-04T13:50:47.564Z,98016.57
2022-12-04T13:54:21.471Z,98026.10
2022-12-04T13:57:25.713Z,98032.41
2022-12-04T14:00:34.952Z,98029.39
2022-12-04T14:03:48.604Z,98028.70
2022-12-04T14:06:52.650Z,98034.00
2022-12-04T14:09:58.016Z,98030.76
2022-12-04T14:13:07.138Z,98034.36
2022-12-04T14:16:22.201Z,98037.37
2022-12-04T14:19:36.642Z,98038.42
2022-12-04T14:22:43.864Z,98037.08
2022-12-04T14:25:46.783Z,98031.98
2022-12-04T14:28:50.586Z,98030.67
2022-12-04T14:31:55.942Z,98035.66
2022-12-04T14:34:59.398Z,98034.76
2022-12-04T14:38:06.429Z,98032.95
2022-12-04T14:41:09.768Z,98034.02
2022-12-04T14:44:29.761Z,98025.33
2022-12-04T14:48:10.482Z,98028.95
2022-12-04T14:51:33.327Z,98023.07
2022-12-04T14:54:44.913Z,98023.62
2022-12-04T14:57:59.821Z,98023.95
2022-12-04T15:01:05.961Z,98032.34
2022-12-04T15:04:35.439Z,98034.70
2022-12-04T15:07:48.100Z,98039.56
2022-12-04T15:11:09.693Z,98037.63
2022-12-04T15:14:14.022Z,98031.08
2022-12-04T15:17:18.826Z,98030.52
2022-12-04T15:20:21.864Z,98029.55
2022-12-04T15:23:34.000Z,98028.77
2022-12-04T15:26:38.013Z,98029.29
2022-12-04T15:29:48.386Z,98030.15
2022-12-04T15:32:53.608Z,98031.98
2022-12-04T15:36:05.593Z,98036.12
2022-12-04T15:39:14.123Z,98032.68
2022-12-04T15:42:25.961Z,98033.19
2022-12-04T15:45:32.256Z,98035.97
2022-12-04T15:48:35.062Z,98040.33
2022-12-04T15:51:37.972Z,98044.45
2022-12-04T15:54:56.699Z,98047.46
2022-12-04T15:58:24.725Z,98054.07
2022-12-04T16:01:28.149Z,98057.76
2022-12-04T16:04:35.616Z,98057.79
2022-12-04T16:07:57.832Z,98061.52
2022-12-04T16:11:08.004Z,98055.70
2022-12-04T16:14:18.810Z,98051.38
2022-12-04T16:17:31.768Z,98050.66
2022-12-04T16:20:36.509Z,98051.38
2022-12-04T16:23:39.293Z,98050.60
2022-12-04T16:26:42.221Z,98044.77
2022-12-04T16:29:45.537Z,98048.28
2022-12-04T16:32:48.575Z,98041.85
2022-12-04T16:35:51.373Z,98047.02
2022-12-04T16:38:54.260Z,98052.05
2022-12-04T16:41:57.236Z,98049.92
2022-12-04T16:45:00.162Z,98049.02
2022-12-04T16:48:03.254Z,98048.79
2022-12-04T16:51:06.074Z,98046.50
2022-12-04T16:54:10.479Z,98042.28
2022-12-04T16:57:13.323Z,98045.92
2022-12-04T17:00:17.760Z,98041.98
2022-12-04T17:03:29.646Z,98044.79
2022-12-04T17:06:33.262Z,98051.08
2022-12-04T17:09:36.022Z,98055.23
2022-12-04T17:12:39.777Z,98054.45
2022-12-04T17:15:42.543Z,98059.21
2022-12-04T17:18:45.351Z,98057.74
2022-12-04T17:21:48.166Z,98052.81
2022-12-04T17:24:55.978Z,98047.16
2022-12-04T17:27:59.196Z,98050.29
2022-12-04T17:31:04.654Z,98058.03
2022-12-04T17:34:07.529Z,98055.34
2022-12-04T17:37:10.410Z,98056.84
2022-12-04T17:40:14.770Z,98061.63
2022-12-04T17:43:21.889Z,98065.64
2022-12-04T17:46:25.251Z,98066.84
2022-12-04T17:49:28.240Z,98058.02
2022-12-04T17:52:31.652Z,98058.15
2022-12-04T17:55:35.173Z,98059.27
2022-12-04T17:58:38.425Z,98063.20
2022-12-04T18:01:41.237Z,98060.43
2022-12-04T18:04:44.050Z,98062.33
2022-12-04T18:07:46.943Z,98065.06
2022-12-04T18:10:50.458Z,98064.54
2022-12-04T18:13:59.444Z,98055.98
2022-12-04T18:17:02.914Z,98049.48
2022-12-04T18:20:07.049Z,98048.66
2022-12-04T18:23:10.221Z,98048.80
2022-12-04T18:26:15.353Z,98048.21
2022-12-04T18:29:21.994Z,98048.48
2022-12-04T18:32:24.788Z,98048.39
2022-12-04T18:35:27.589Z,98051.65
2022-12-04T18:38:32.105Z,98048.80
2022-12-04T18:41:35.339Z,98055.65
2022-12-04T18:44:38.152Z,98057.95
2022-12-04T18:47:41.057Z,98062.27
2022-12-04T18:50:43.821Z,98060.23
2022-12-04T18:53:47.773Z,98064.84
2022-12-04T18:56:51.422Z,98064.66
2022-12-04T18:59:54.903Z,98062.65
2022-12-04T19:02:58.049Z,98056.44
2022-12-04T19:06:01.720Z,98054.11
2022-12-04T19:09:11.331Z,98055.58
2022-12-04T19:12:14.742Z,98050.20
2022-12-04T19:15:17.584Z,98054.05
2022-12-04T19:18:20.398Z,98054.17
2022-12-04T19:21:24.132Z,98056.81
2022-12-04T19:24:26.868Z,98051.81
2022-12-04T19:27:29.688Z,98058.33
2022-12-04T19:30:33.831Z,98057.23
2022-12-04T19:33:37.361Z,98056.70
2022-12-04T19:36:41.387Z,98051.02
2022-12-04T19:39:44.370Z,98044.46
2022-12-04T19:42:47.372Z,98047.29
2022-12-04T19:45:50.436Z,98046.41
2022-12-04T19:48:56.892Z,98048.02
2022-12-04T19:51:59.709Z,98047.30
2022-12-04T19:55:02.596Z,98048.77
2022-12-04T19:58:05.400Z,98048.07
2022-12-04T20:01:10.763Z,98055.04
2022-12-04T20:04:13.627Z,98053.57
2022-12-04T20:07:16.482Z,98058.19
2022-12-04T20:10:19.436Z,98054.81
2022-12-04T20:13:22.265Z,98053.67
2022-12-04T20:16:26.690Z,98048.46
2022-12-04T20:19:29.596Z,98052.25
2022-12-04T20:22:32.502Z,98053.53
2022-12-04T20:25:36.410Z,98055.84
2022-12-04T20:28:41.230Z,98058.03
2022-12-04T20:31:46.825Z,98059.17
2022-12-04T20:34:49.655Z,98054.02
2022-12-04T20:37:52.399Z,98053.59
2022-12-04T20:40:55.220Z,98057.70
2022-12-04T20:44:04.921Z,98051.45
2022-12-04T20:47:07.817Z,98048.42
2022-12-04T20:50:11.219Z,98050.12
2022-12-04T20:53:14.085Z,98056.54
2022-12-04T20:56:18.724Z,98052.67
2022-12-04T20:59:23.357Z,98051.46
2022-12-04T21:02:26.328Z,98050.55
2022-12-04T21:05:29.112Z,98044.70
2022-12-04T21:08:51.205Z,98045.08
2022-12-04T21:11:55.685Z,98046.18
2022-12-04T21:15:17.419Z,98046.93
2022-12-04T21:18:20.242Z,98049.02
2022-12-04T21:21:23.076Z,98053.44
2022-12-04T21:24:30.497Z,98055.86
2022-12-04T21:27:33.317Z,98051.08
2022-12-04T21:30:36.126Z,98045.42
2022-12-04T21:33:38.926Z,98046.75
2022-12-04T21:36:42.783Z,98048.55
2022-12-04T21:39:45.710Z,98040.77
2022-12-04T21:42:48.467Z,98039.64
2022-12-04T21:46:09.375Z,98035.14
2022-12-04T21:49:13.916Z,98030.48
2022-12-04T21:52:17.784Z,98027.41
2022-12-04T21:55:20.593Z,98026.11
2022-12-04T21:58:26.098Z,98031.16
2022-12-04T22:01:29.080Z,98038.38
2022-12-04T22:04:31.944Z,98037.98
2022-12-04T22:07:34.785Z,98026.80
2022-12-04T22:10:45.752Z,98021.38
2022-12-04T22:13:48.658Z,98011.90
2022-12-04T22:16:52.523Z,98007.71
2022-12-04T22:19:55.715Z,98003.92
2022-12-04T22:22:59.254Z,98006.75
2022-12-04T22:26:10.732Z,98010.05
2022-12-04T22:29:42.042Z,98009.69
2022-12-04T22:32:36.881Z,98003.60
2022-12-04T22:35:39.673Z,98006.57
2022-12-04T22:39:05.964Z,98005.92
2022-12-04T22:42:05.684Z,98005.08
2022-12-04T22:45:09.758Z,98002.16
2022-12-04T22:48:12.532Z,98002.56
2022-12-04T22:51:18.778Z,98003.61
2022-12-04T22:54:21.636Z,97996.13
2022-12-04T22:57:25.057Z,97994.13
2022-12-04T23:00:28.426Z,97990.48
2022-12-04T23:03:31.223Z,97989.98
2022-12-04T23:06:34.553Z,97986.63
2022-12-04T23:09:37.523Z,97992.52
2022-12-04T23:12:40.361Z,97989.61
2022-12-04T23:15:43.158Z,97989.52
2022-12-04T23:18:46.014Z,97995.91
2022-12-04T23:21:56.409Z,97990.39
2022-12-04T23:25:00.360Z,97991.80
2022-12-04T23:28:03.202Z,97992.10
2022-12-04T23:31:06.286Z,97993.48
2022-12-04T23:34:09.100Z,97987.70
2022-12-04T23:37:24.164Z,97985.25
2022-12-04T23:40:26.794Z,97986.36
2022-12-04T23:43:29.678Z,97985.94
2022-12-04T23:46:33.243Z,97987.38
2022-12-04T23:49:36.176Z,97988.16
2022-12-04T23:52:39.056Z,97983.11
2022-12-04T23:55:41.716Z,97978.08
2022-12-04T23:58:45.772Z,97974.67
